sensor_id;sensor_type;location;lat;lon;timestamp;P1;durP1;ratioP1;P2;durP2;ratioP2
61206;SDS011;47070;49.212;8.084;2022-08-06T00:00:07;1.38;;;1.27;;
61206;SDS011;47070;49.212;8.084;2022-08-06T00:04:08;1.58;;;1.48;;
61206;SDS011;47070;49.212;8.084;2022-08-06T00:08:08;1.55;;;1.45;;
61206;SDS011;47070;49.212;8.084;2022-08-06T00:12:09;1.02;;;1.02;;
61206;SDS011;47070;49.212;8.084;2022-08-06T00:16:10;1.20;;;1.10;;
61206;SDS011;47070;49.212;8.084;2022-08-06T00:20:11;1.30;;;1.20;;
61206;SDS011;47070;49.212;8.084;2022-08-06T00:24:13;1.40;;;1.30;;
61206;SDS011;47070;49.212;8.084;2022-08-06T00:28:14;1.23;;;1.20;;
61206;SDS011;47070;49.212;8.084;2022-08-06T00:32:15;3.53;;;1.48;;
61206;SDS011;47070;49.212;8.084;2022-08-06T00:36:16;1.30;;;1.20;;
61206;SDS011;47070;49.212;8.084;2022-08-06T00:40:16;1.45;;;1.17;;
61206;SDS011;47070;49.212;8.084;2022-08-06T00:44:20;1.67;;;1.50;;
61206;SDS011;47070;49.212;8.084;2022-08-06T00:48:21;2.05;;;1.30;;
61206;SDS011;47070;49.212;8.084;2022-08-06T00:52:21;5.00;;;1.40;;
61206;SDS011;47070;49.212;8.084;2022-08-06T00:56:22;1.55;;;1.40;;
61206;SDS011;47070;49.212;8.084;2022-08-06T01:00:22;1.77;;;1.25;;
61206;SDS011;47070;49.212;8.084;2022-08-06T01:04:23;2.17;;;1.48;;
61206;SDS011;47070;49.212;8.084;2022-08-06T01:08:23;2.13;;;1.35;;
61206;SDS011;47070;49.212;8.084;2022-08-06T01:12:25;1.20;;;1.10;;
61206;SDS011;47070;49.212;8.084;2022-08-06T01:25:18;2.45;;;1.50;;
61206;SDS011;47070;49.212;8.084;2022-08-06T01:29:28;3.60;;;1.35;;
61206;SDS011;47070;49.212;8.084;2022-08-06T01:33:52;1.10;;;1.05;;
61206;SDS011;47070;49.212;8.084;2022-08-06T01:38:03;2.58;;;1.35;;
61206;SDS011;47070;49.212;8.084;2022-08-06T01:42:26;1.75;;;1.33;;
61206;SDS011;47070;49.212;8.084;2022-08-06T01:46:30;1.33;;;1.10;;
61206;SDS011;47070;49.212;8.084;2022-08-06T01:50:45;1.30;;;1.17;;
61206;SDS011;47070;49.212;8.084;2022-08-06T01:54:48;1.17;;;1.08;;
61206;SDS011;47070;49.212;8.084;2022-08-06T01:58:50;1.13;;;0.82;;
61206;SDS011;47070;49.212;8.084;2022-08-06T02:02:53;1.05;;;0.95;;
61206;SDS011;47070;49.212;8.084;2022-08-06T02:06:55;1.15;;;1.02;;
61206;SDS011;47070;49.212;8.084;2022-08-06T02:10:58;2.30;;;1.23;;
61206;SDS011;47070;49.212;8.084;2022-08-06T02:15:02;1.10;;;1.00;;
61206;SDS011;47070;49.212;8.084;2022-08-06T02:19:07;1.73;;;0.98;;
61206;SDS011;47070;49.212;8.084;2022-08-06T02:23:13;1.40;;;1.13;;
61206;SDS011;47070;49.212;8.084;2022-08-06T02:27:16;1.75;;;1.13;;
61206;SDS011;47070;49.212;8.084;2022-08-06T02:31:19;1.83;;;1.02;;
61206;SDS011;47070;49.212;8.084;2022-08-06T02:35:20;1.90;;;1.20;;
61206;SDS011;47070;49.212;8.084;2022-08-06T02:43:25;1.80;;;0.80;;
61206;SDS011;47070;49.212;8.084;2022-08-06T02:47:41;1.27;;;1.08;;
61206;SDS011;47070;49.212;8.084;2022-08-06T02:51:55;1.35;;;1.15;;
61206;SDS011;47070;49.212;8.084;2022-08-06T02:56:06;2.03;;;1.15;;
61206;SDS011;47070;49.212;8.084;2022-08-06T03:00:11;2.97;;;1.15;;
61206;SDS011;47070;49.212;8.084;2022-08-06T03:04:12;2.97;;;0.95;;
61206;SDS011;47070;49.212;8.084;2022-08-06T03:08:16;1.35;;;0.93;;
61206;SDS011;47070;49.212;8.084;2022-08-06T03:12:19;1.38;;;0.80;;
61206;SDS011;47070;49.212;8.084;2022-08-06T03:16:21;0.80;;;0.70;;
61206;SDS011;47070;49.212;8.084;2022-08-06T03:20:23;1.52;;;0.85;;
61206;SDS011;47070;49.212;8.084;2022-08-06T03:24:24;2.15;;;0.60;;
61206;SDS011;47070;49.212;8.084;2022-08-06T03:28:26;2.95;;;0.80;;
61206;SDS011;47070;49.212;8.084;2022-08-06T03:32:27;7.97;;;0.75;;
61206;SDS011;47070;49.212;8.084;2022-08-06T03:36:28;2.47;;;0.98;;
61206;SDS011;47070;49.212;8.084;2022-08-06T03:40:29;2.42;;;0.73;;
61206;SDS011;47070;49.212;8.084;2022-08-06T03:44:32;0.70;;;0.70;;
61206;SDS011;47070;49.212;8.084;2022-08-06T03:48:34;0.82;;;0.70;;
61206;SDS011;47070;49.212;8.084;2022-08-06T03:52:39;0.70;;;0.70;;
61206;SDS011;47070;49.212;8.084;2022-08-06T03:56:43;2.90;;;0.80;;
61206;SDS011;47070;49.212;8.084;2022-08-06T04:00:55;1.02;;;0.55;;
61206;SDS011;47070;49.212;8.084;2022-08-06T04:05:00;0.82;;;0.60;;
61206;SDS011;47070;49.212;8.084;2022-08-06T04:09:01;1.10;;;0.60;;
61206;SDS011;47070;49.212;8.084;2022-08-06T04:13:07;0.85;;;0.70;;
61206;SDS011;47070;49.212;8.084;2022-08-06T04:17:09;0.50;;;0.50;;
61206;SDS011;47070;49.212;8.084;2022-08-06T04:21:19;2.22;;;0.70;;
61206;SDS011;47070;49.212;8.084;2022-08-06T04:25:21;1.25;;;0.80;;
61206;SDS011;47070;49.212;8.084;2022-08-06T04:29:24;0.73;;;0.70;;
61206;SDS011;47070;49.212;8.084;2022-08-06T04:33:25;2.35;;;0.63;;
61206;SDS011;47070;49.212;8.084;2022-08-06T04:37:27;0.75;;;0.70;;
61206;SDS011;47070;49.212;8.084;2022-08-06T04:41:28;1.17;;;0.52;;
61206;SDS011;47070;49.212;8.084;2022-08-06T04:45:29;0.93;;;0.50;;
61206;SDS011;47070;49.212;8.084;2022-08-06T04:49:29;0.98;;;0.73;;
61206;SDS011;47070;49.212;8.084;2022-08-06T04:53:36;0.73;;;0.70;;
61206;SDS011;47070;49.212;8.084;2022-08-06T04:57:38;0.65;;;0.60;;
61206;SDS011;47070;49.212;8.084;2022-08-06T05:01:39;0.73;;;0.63;;
61206;SDS011;47070;49.212;8.084;2022-08-06T05:05:44;1.13;;;0.68;;
61206;SDS011;47070;49.212;8.084;2022-08-06T05:09:50;0.77;;;0.70;;
61206;SDS011;47070;49.212;8.084;2022-08-06T05:13:57;1.85;;;0.60;;
61206;SDS011;47070;49.212;8.084;2022-08-06T05:22:16;0.73;;;0.73;;
61206;SDS011;47070;49.212;8.084;2022-08-06T05:26:20;0.63;;;0.63;;
61206;SDS011;47070;49.212;8.084;2022-08-06T05:30:21;0.50;;;0.50;;
61206;SDS011;47070;49.212;8.084;2022-08-06T05:34:22;1.25;;;0.60;;
61206;SDS011;47070;49.212;8.084;2022-08-06T05:38:22;0.65;;;0.65;;
61206;SDS011;47070;49.212;8.084;2022-08-06T05:42:23;1.20;;;0.73;;
61206;SDS011;47070;49.212;8.084;2022-08-06T05:46:24;0.73;;;0.70;;
61206;SDS011;47070;49.212;8.084;2022-08-06T05:50:28;0.60;;;0.60;;
61206;SDS011;47070;49.212;8.084;2022-08-06T05:58:47;0.73;;;0.63;;
61206;SDS011;47070;49.212;8.084;2022-08-06T06:02:52;2.67;;;0.90;;
61206;SDS011;47070;49.212;8.084;2022-08-06T06:06:55;1.45;;;0.52;;
61206;SDS011;47070;49.212;8.084;2022-08-06T06:10:55;1.95;;;0.57;;
61206;SDS011;47070;49.212;8.084;2022-08-06T06:14:57;0.50;;;0.50;;
61206;SDS011;47070;49.212;8.084;2022-08-06T06:19:16;0.65;;;0.60;;
61206;SDS011;47070;49.212;8.084;2022-08-06T06:28:16;0.70;;;0.70;;
61206;SDS011;47070;49.212;8.084;2022-08-06T06:36:51;3.17;;;0.90;;
61206;SDS011;47070;49.212;8.084;2022-08-06T06:41:00;1.27;;;0.70;;
61206;SDS011;47070;49.212;8.084;2022-08-06T06:49:44;2.67;;;0.70;;
61206;SDS011;47070;49.212;8.084;2022-08-06T06:53:47;0.65;;;0.60;;
61206;SDS011;47070;49.212;8.084;2022-08-06T06:57:51;1.65;;;0.60;;
61206;SDS011;47070;49.212;8.084;2022-08-06T07:01:56;1.38;;;0.88;;
61206;SDS011;47070;49.212;8.084;2022-08-06T07:05:58;0.60;;;0.60;;
61206;SDS011;47070;49.212;8.084;2022-08-06T07:09:59;1.40;;;0.60;;
61206;SDS011;47070;49.212;8.084;2022-08-06T07:14:01;2.97;;;0.82;;
61206;SDS011;47070;49.212;8.084;2022-08-06T07:18:03;2.42;;;0.77;;
61206;SDS011;47070;49.212;8.084;2022-08-06T07:22:04;0.73;;;0.70;;
61206;SDS011;47070;49.212;8.084;2022-08-06T07:26:05;1.05;;;0.80;;
61206;SDS011;47070;49.212;8.084;2022-08-06T07:30:09;4.82;;;0.90;;
61206;SDS011;47070;49.212;8.084;2022-08-06T07:34:11;1.65;;;0.68;;
61206;SDS011;47070;49.212;8.084;2022-08-06T07:38:12;2.33;;;0.63;;
61206;SDS011;47070;49.212;8.084;2022-08-06T07:42:15;1.42;;;0.70;;
61206;SDS011;47070;49.212;8.084;2022-08-06T07:46:20;2.10;;;0.82;;
61206;SDS011;47070;49.212;8.084;2022-08-06T07:50:23;0.60;;;0.60;;
61206;SDS011;47070;49.212;8.084;2022-08-06T07:54:25;0.60;;;0.60;;
61206;SDS011;47070;49.212;8.084;2022-08-06T07:58:30;1.85;;;0.88;;
61206;SDS011;47070;49.212;8.084;2022-08-06T08:02:32;1.77;;;0.90;;
61206;SDS011;47070;49.212;8.084;2022-08-06T08:06:34;0.82;;;0.68;;
61206;SDS011;47070;49.212;8.084;2022-08-06T08:10:35;2.10;;;0.85;;
61206;SDS011;47070;49.212;8.084;2022-08-06T08:14:36;10.88;;;1.15;;
61206;SDS011;47070;49.212;8.084;2022-08-06T08:18:39;1.08;;;0.90;;
61206;SDS011;47070;49.212;8.084;2022-08-06T08:22:40;1.67;;;0.70;;
61206;SDS011;47070;49.212;8.084;2022-08-06T08:26:41;1.52;;;0.93;;
61206;SDS011;47070;49.212;8.084;2022-08-06T08:30:42;3.33;;;0.80;;
61206;SDS011;47070;49.212;8.084;2022-08-06T08:34:43;1.67;;;0.52;;
61206;SDS011;47070;49.212;8.084;2022-08-06T08:38:43;0.60;;;0.60;;
61206;SDS011;47070;49.212;8.084;2022-08-06T08:42:45;1.25;;;0.80;;
61206;SDS011;47070;49.212;8.084;2022-08-06T08:46:48;2.55;;;1.00;;
61206;SDS011;47070;49.212;8.084;2022-08-06T08:50:49;1.40;;;0.90;;
61206;SDS011;47070;49.212;8.084;2022-08-06T08:54:51;1.55;;;0.88;;
61206;SDS011;47070;49.212;8.084;2022-08-06T08:58:55;2.38;;;1.20;;
61206;SDS011;47070;49.212;8.084;2022-08-06T09:02:55;2.95;;;1.10;;
61206;SDS011;47070;49.212;8.084;2022-08-06T09:06:57;3.20;;;0.82;;
61206;SDS011;47070;49.212;8.084;2022-08-06T09:10:58;0.55;;;0.55;;
61206;SDS011;47070;49.212;8.084;2022-08-06T09:14:59;1.38;;;0.77;;
61206;SDS011;47070;49.212;8.084;2022-08-06T09:19:00;1.25;;;1.08;;
61206;SDS011;47070;49.212;8.084;2022-08-06T09:23:03;0.75;;;0.75;;
61206;SDS011;47070;49.212;8.084;2022-08-06T09:27:04;1.35;;;0.80;;
61206;SDS011;47070;49.212;8.084;2022-08-06T09:31:12;0.90;;;0.80;;
61206;SDS011;47070;49.212;8.084;2022-08-06T09:35:21;2.65;;;1.13;;
61206;SDS011;47070;49.212;8.084;2022-08-06T09:39:29;1.77;;;1.00;;
61206;SDS011;47070;49.212;8.084;2022-08-06T09:43:35;3.08;;;0.85;;
61206;SDS011;47070;49.212;8.084;2022-08-06T09:47:37;3.60;;;0.70;;
61206;SDS011;47070;49.212;8.084;2022-08-06T09:51:38;0.80;;;0.63;;
61206;SDS011;47070;49.212;8.084;2022-08-06T09:55:40;1.45;;;1.00;;
61206;SDS011;47070;49.212;8.084;2022-08-06T09:59:42;0.70;;;0.70;;
61206;SDS011;47070;49.212;8.084;2022-08-06T10:03:44;2.17;;;0.70;;
61206;SDS011;47070;49.212;8.084;2022-08-06T10:07:45;1.80;;;0.80;;
61206;SDS011;47070;49.212;8.084;2022-08-06T10:11:47;0.68;;;0.60;;
61206;SDS011;47070;49.212;8.084;2022-08-06T10:15:47;1.20;;;0.60;;
61206;SDS011;47070;49.212;8.084;2022-08-06T10:20:10;0.75;;;0.70;;
61206;SDS011;47070;49.212;8.084;2022-08-06T10:24:14;1.52;;;0.63;;
61206;SDS011;47070;49.212;8.084;2022-08-06T10:28:16;0.65;;;0.60;;
61206;SDS011;47070;49.212;8.084;2022-08-06T10:32:34;0.88;;;0.70;;
61206;SDS011;47070;49.212;8.084;2022-08-06T10:36:44;1.85;;;0.80;;
61206;SDS011;47070;49.212;8.084;2022-08-06T10:40:50;1.40;;;0.82;;
61206;SDS011;47070;49.212;8.084;2022-08-06T10:44:52;1.85;;;0.75;;
61206;SDS011;47070;49.212;8.084;2022-08-06T10:48:53;0.75;;;0.60;;
61206;SDS011;47070;49.212;8.084;2022-08-06T10:52:55;1.42;;;0.40;;
61206;SDS011;47070;49.212;8.084;2022-08-06T10:56:56;1.52;;;0.43;;
61206;SDS011;47070;49.212;8.084;2022-08-06T11:00:58;1.60;;;0.80;;
61206;SDS011;47070;49.212;8.084;2022-08-06T11:05:00;2.63;;;0.70;;
61206;SDS011;47070;49.212;8.084;2022-08-06T11:18:04;1.42;;;0.50;;
61206;SDS011;47070;49.212;8.084;2022-08-06T11:22:06;2.13;;;0.70;;
61206;SDS011;47070;49.212;8.084;2022-08-06T11:26:07;3.03;;;0.60;;
61206;SDS011;47070;49.212;8.084;2022-08-06T11:30:11;1.95;;;1.02;;
61206;SDS011;47070;49.212;8.084;2022-08-06T11:34:12;0.47;;;0.47;;
61206;SDS011;47070;49.212;8.084;2022-08-06T11:38:15;1.73;;;0.52;;
61206;SDS011;47070;49.212;8.084;2022-08-06T11:42:40;0.38;;;0.38;;
61206;SDS011;47070;49.212;8.084;2022-08-06T11:46:43;0.68;;;0.68;;
61206;SDS011;47070;49.212;8.084;2022-08-06T11:50:45;0.77;;;0.50;;
61206;SDS011;47070;49.212;8.084;2022-08-06T11:58:46;1.48;;;0.60;;
61206;SDS011;47070;49.212;8.084;2022-08-06T12:02:50;0.50;;;0.50;;
61206;SDS011;47070;49.212;8.084;2022-08-06T12:07:10;1.08;;;0.55;;
61206;SDS011;47070;49.212;8.084;2022-08-06T12:11:24;0.52;;;0.50;;
61206;SDS011;47070;49.212;8.084;2022-08-06T12:15:36;0.40;;;0.40;;
61206;SDS011;47070;49.212;8.084;2022-08-06T12:19:41;0.68;;;0.45;;
61206;SDS011;47070;49.212;8.084;2022-08-06T12:23:43;0.75;;;0.57;;
61206;SDS011;47070;49.212;8.084;2022-08-06T12:27:44;1.20;;;0.40;;
61206;SDS011;47070;49.212;8.084;2022-08-06T12:31:45;0.80;;;0.43;;
61206;SDS011;47070;49.212;8.084;2022-08-06T12:35:50;0.40;;;0.40;;
61206;SDS011;47070;49.212;8.084;2022-08-06T12:40:02;1.58;;;0.50;;
61206;SDS011;47070;49.212;8.084;2022-08-06T12:44:30;1.02;;;0.45;;
61206;SDS011;47070;49.212;8.084;2022-08-06T12:48:33;0.32;;;0.32;;
61206;SDS011;47070;49.212;8.084;2022-08-06T12:52:35;0.40;;;0.40;;
61206;SDS011;47070;49.212;8.084;2022-08-06T12:56:36;0.40;;;0.40;;
61206;SDS011;47070;49.212;8.084;2022-08-06T13:00:39;0.55;;;0.47;;
61206;SDS011;47070;49.212;8.084;2022-08-06T13:04:43;0.30;;;0.30;;
61206;SDS011;47070;49.212;8.084;2022-08-06T13:08:49;1.85;;;0.45;;
61206;SDS011;47070;49.212;8.084;2022-08-06T13:12:53;1.58;;;0.50;;
61206;SDS011;47070;49.212;8.084;2022-08-06T13:16:54;0.50;;;0.50;;
61206;SDS011;47070;49.212;8.084;2022-08-06T13:20:55;0.63;;;0.40;;
61206;SDS011;47070;49.212;8.084;2022-08-06T13:25:13;0.60;;;0.40;;
61206;SDS011;47070;49.212;8.084;2022-08-06T13:29:26;1.42;;;0.40;;
61206;SDS011;47070;49.212;8.084;2022-08-06T13:33:28;4.13;;;0.47;;
61206;SDS011;47070;49.212;8.084;2022-08-06T13:41:45;1.95;;;0.40;;
61206;SDS011;47070;49.212;8.084;2022-08-06T13:45:46;0.57;;;0.55;;
61206;SDS011;47070;49.212;8.084;2022-08-06T13:49:46;0.45;;;0.45;;
61206;SDS011;47070;49.212;8.084;2022-08-06T13:53:47;0.30;;;0.30;;
61206;SDS011;47070;49.212;8.084;2022-08-06T13:57:48;0.30;;;0.30;;
61206;SDS011;47070;49.212;8.084;2022-08-06T14:01:48;0.40;;;0.40;;
61206;SDS011;47070;49.212;8.084;2022-08-06T14:05:49;1.75;;;0.32;;
61206;SDS011;47070;49.212;8.084;2022-08-06T14:09:50;1.02;;;0.43;;
61206;SDS011;47070;49.212;8.084;2022-08-06T14:13:51;2.47;;;0.43;;
61206;SDS011;47070;49.212;8.084;2022-08-06T14:17:51;2.58;;;0.40;;
61206;SDS011;47070;49.212;8.084;2022-08-06T14:21:51;0.75;;;0.32;;
61206;SDS011;47070;49.212;8.084;2022-08-06T14:25:52;1.73;;;0.70;;
61206;SDS011;47070;49.212;8.084;2022-08-06T14:29:52;0.65;;;0.50;;
61206;SDS011;47070;49.212;8.084;2022-08-06T14:33:53;4.30;;;0.50;;
61206;SDS011;47070;49.212;8.084;2022-08-06T14:37:53;0.43;;;0.40;;
61206;SDS011;47070;49.212;8.084;2022-08-06T14:41:54;1.55;;;0.50;;
61206;SDS011;47070;49.212;8.084;2022-08-06T14:46:13;0.32;;;0.30;;
61206;SDS011;47070;49.212;8.084;2022-08-06T14:50:14;2.03;;;0.70;;
61206;SDS011;47070;49.212;8.084;2022-08-06T14:54:17;0.30;;;0.30;;
61206;SDS011;47070;49.212;8.084;2022-08-06T14:58:17;1.23;;;0.68;;
61206;SDS011;47070;49.212;8.084;2022-08-06T15:02:21;1.75;;;0.50;;
61206;SDS011;47070;49.212;8.084;2022-08-06T15:06:22;2.20;;;0.50;;
61206;SDS011;47070;49.212;8.084;2022-08-06T15:10:22;0.50;;;0.50;;
61206;SDS011;47070;49.212;8.084;2022-08-06T15:14:23;0.60;;;0.45;;
61206;SDS011;47070;49.212;8.084;2022-08-06T15:18:23;0.30;;;0.30;;
61206;SDS011;47070;49.212;8.084;2022-08-06T15:22:24;1.60;;;0.80;;
61206;SDS011;47070;49.212;8.084;2022-08-06T15:26:25;2.10;;;0.80;;
61206;SDS011;47070;49.212;8.084;2022-08-06T15:30:26;0.63;;;0.50;;
61206;SDS011;47070;49.212;8.084;2022-08-06T15:34:27;3.28;;;0.60;;
61206;SDS011;47070;49.212;8.084;2022-08-06T15:38:27;0.35;;;0.35;;
61206;SDS011;47070;49.212;8.084;2022-08-06T15:42:28;0.43;;;0.43;;
61206;SDS011;47070;49.212;8.084;2022-08-06T15:46:29;0.50;;;0.45;;
61206;SDS011;47070;49.212;8.084;2022-08-06T15:50:29;2.35;;;0.47;;
61206;SDS011;47070;49.212;8.084;2022-08-06T15:54:30;0.70;;;0.57;;
61206;SDS011;47070;49.212;8.084;2022-08-06T15:58:31;0.63;;;0.40;;
61206;SDS011;47070;49.212;8.084;2022-08-06T16:02:31;0.30;;;0.30;;
61206;SDS011;47070;49.212;8.084;2022-08-06T16:06:32;0.43;;;0.40;;
61206;SDS011;47070;49.212;8.084;2022-08-06T16:10:33;1.08;;;0.50;;
61206;SDS011;47070;49.212;8.084;2022-08-06T16:14:33;0.40;;;0.40;;
61206;SDS011;47070;49.212;8.084;2022-08-06T16:18:34;1.70;;;0.60;;
61206;SDS011;47070;49.212;8.084;2022-08-06T16:22:35;0.50;;;0.50;;
61206;SDS011;47070;49.212;8.084;2022-08-06T16:26:35;1.65;;;1.00;;
61206;SDS011;47070;49.212;8.084;2022-08-06T16:30:38;0.80;;;0.30;;
61206;SDS011;47070;49.212;8.084;2022-08-06T16:34:41;1.05;;;0.50;;
61206;SDS011;47070;49.212;8.084;2022-08-06T16:38:42;0.93;;;0.52;;
61206;SDS011;47070;49.212;8.084;2022-08-06T16:42:43;2.28;;;0.90;;
61206;SDS011;47070;49.212;8.084;2022-08-06T16:46:44;0.40;;;0.40;;
61206;SDS011;47070;49.212;8.084;2022-08-06T16:50:44;0.45;;;0.40;;
61206;SDS011;47070;49.212;8.084;2022-08-06T16:54:45;0.30;;;0.30;;
61206;SDS011;47070;49.212;8.084;2022-08-06T16:58:45;0.43;;;0.43;;
61206;SDS011;47070;49.212;8.084;2022-08-06T17:02:48;0.75;;;0.55;;
61206;SDS011;47070;49.212;8.084;2022-08-06T17:06:49;0.75;;;0.60;;
61206;SDS011;47070;49.212;8.084;2022-08-06T17:10:49;0.98;;;0.40;;
61206;SDS011;47070;49.212;8.084;2022-08-06T17:14:50;5.47;;;0.60;;
61206;SDS011;47070;49.212;8.084;2022-08-06T17:18:51;1.77;;;0.50;;
61206;SDS011;47070;49.212;8.084;2022-08-06T17:22:51;0.50;;;0.50;;
61206;SDS011;47070;49.212;8.084;2022-08-06T17:26:51;4.75;;;0.55;;
61206;SDS011;47070;49.212;8.084;2022-08-06T17:30:52;1.38;;;0.60;;
61206;SDS011;47070;49.212;8.084;2022-08-06T17:34:52;0.38;;;0.38;;
61206;SDS011;47070;49.212;8.084;2022-08-06T17:38:53;0.43;;;0.40;;
61206;SDS011;47070;49.212;8.084;2022-08-06T17:42:54;2.40;;;0.50;;
61206;SDS011;47070;49.212;8.084;2022-08-06T17:46:55;0.80;;;0.50;;
61206;SDS011;47070;49.212;8.084;2022-08-06T17:50:55;1.23;;;0.55;;
61206;SDS011;47070;49.212;8.084;2022-08-06T17:54:56;0.30;;;0.30;;
61206;SDS011;47070;49.212;8.084;2022-08-06T17:59:06;0.50;;;0.50;;
61206;SDS011;47070;49.212;8.084;2022-08-06T18:03:08;0.70;;;0.70;;
61206;SDS011;47070;49.212;8.084;2022-08-06T18:07:08;0.35;;;0.35;;
61206;SDS011;47070;49.212;8.084;2022-08-06T18:11:11;0.60;;;0.60;;
61206;SDS011;47070;49.212;8.084;2022-08-06T18:15:12;0.95;;;0.63;;
61206;SDS011;47070;49.212;8.084;2022-08-06T18:19:13;0.30;;;0.30;;
61206;SDS011;47070;49.212;8.084;2022-08-06T18:23:13;1.70;;;0.57;;
61206;SDS011;47070;49.212;8.084;2022-08-06T18:27:14;1.05;;;0.70;;
61206;SDS011;47070;49.212;8.084;2022-08-06T18:31:15;0.45;;;0.40;;
61206;SDS011;47070;49.212;8.084;2022-08-06T18:35:16;2.35;;;0.50;;
61206;SDS011;47070;49.212;8.084;2022-08-06T18:39:17;3.15;;;0.95;;
61206;SDS011;47070;49.212;8.084;2022-08-06T18:43:19;1.30;;;0.60;;
61206;SDS011;47070;49.212;8.084;2022-08-06T18:47:20;2.25;;;0.60;;
61206;SDS011;47070;49.212;8.084;2022-08-06T18:51:20;0.55;;;0.55;;
61206;SDS011;47070;49.212;8.084;2022-08-06T18:55:21;1.55;;;0.60;;
61206;SDS011;47070;49.212;8.084;2022-08-06T18:59:21;0.75;;;0.40;;
61206;SDS011;47070;49.212;8.084;2022-08-06T19:03:22;0.70;;;0.43;;
61206;SDS011;47070;49.212;8.084;2022-08-06T19:07:23;0.52;;;0.52;;
61206;SDS011;47070;49.212;8.084;2022-08-06T19:11:24;5.82;;;0.43;;
61206;SDS011;47070;49.212;8.084;2022-08-06T19:15:25;0.85;;;0.40;;
61206;SDS011;47070;49.212;8.084;2022-08-06T19:19:26;0.40;;;0.40;;
61206;SDS011;47070;49.212;8.084;2022-08-06T19:23:26;1.02;;;0.60;;
61206;SDS011;47070;49.212;8.084;2022-08-06T19:27:27;1.55;;;1.40;;
61206;SDS011;47070;49.212;8.084;2022-08-06T19:31:28;0.73;;;0.73;;
61206;SDS011;47070;49.212;8.084;2022-08-06T19:35:29;3.58;;;1.33;;
61206;SDS011;47070;49.212;8.084;2022-08-06T19:39:30;2.72;;;1.25;;
61206;SDS011;47070;49.212;8.084;2022-08-06T19:43:30;2.25;;;1.45;;
61206;SDS011;47070;49.212;8.084;2022-08-06T19:47:31;2.58;;;0.70;;
61206;SDS011;47070;49.212;8.084;2022-08-06T19:51:34;4.45;;;1.20;;
61206;SDS011;47070;49.212;8.084;2022-08-06T19:55:34;1.70;;;0.80;;
61206;SDS011;47070;49.212;8.084;2022-08-06T19:59:36;2.10;;;0.98;;
61206;SDS011;47070;49.212;8.084;2022-08-06T20:03:37;1.95;;;0.90;;
61206;SDS011;47070;49.212;8.084;2022-08-06T20:07:40;4.72;;;0.88;;
61206;SDS011;47070;49.212;8.084;2022-08-06T20:11:41;1.67;;;1.20;;
61206;SDS011;47070;49.212;8.084;2022-08-06T20:15:41;0.70;;;0.70;;
61206;SDS011;47070;49.212;8.084;2022-08-06T20:19:42;0.70;;;0.40;;
61206;SDS011;47070;49.212;8.084;2022-08-06T20:23:42;2.08;;;0.65;;
61206;SDS011;47070;49.212;8.084;2022-08-06T20:27:43;1.50;;;0.90;;
61206;SDS011;47070;49.212;8.084;2022-08-06T20:31:45;0.50;;;0.50;;
61206;SDS011;47070;49.212;8.084;2022-08-06T20:35:46;0.95;;;0.52;;
61206;SDS011;47070;49.212;8.084;2022-08-06T20:39:46;3.60;;;0.85;;
61206;SDS011;47070;49.212;8.084;2022-08-06T20:43:47;0.52;;;0.52;;
61206;SDS011;47070;49.212;8.084;2022-08-06T20:47:48;0.73;;;0.57;;
61206;SDS011;47070;49.212;8.084;2022-08-06T20:51:49;0.90;;;0.70;;
61206;SDS011;47070;49.212;8.084;2022-08-06T20:55:49;0.77;;;0.50;;
61206;SDS011;47070;49.212;8.084;2022-08-06T20:59:50;0.98;;;0.47;;
61206;SDS011;47070;49.212;8.084;2022-08-06T21:03:51;1.08;;;0.60;;
61206;SDS011;47070;49.212;8.084;2022-08-06T21:07:52;0.65;;;0.45;;
61206;SDS011;47070;49.212;8.084;2022-08-06T21:11:53;1.98;;;0.50;;
61206;SDS011;47070;49.212;8.084;2022-08-06T21:15:53;2.00;;;0.43;;
61206;SDS011;47070;49.212;8.084;2022-08-06T21:19:54;1.05;;;0.45;;
61206;SDS011;47070;49.212;8.084;2022-08-06T21:23:54;0.22;;;0.22;;
61206;SDS011;47070;49.212;8.084;2022-08-06T21:27:55;1.85;;;0.50;;
61206;SDS011;47070;49.212;8.084;2022-08-06T21:31:56;1.23;;;0.50;;
61206;SDS011;47070;49.212;8.084;2022-08-06T21:35:57;0.65;;;0.38;;
61206;SDS011;47070;49.212;8.084;2022-08-06T21:39:57;0.50;;;0.40;;
61206;SDS011;47070;49.212;8.084;2022-08-06T21:43:59;1.13;;;0.40;;
61206;SDS011;47070;49.212;8.084;2022-08-06T21:48:00;0.65;;;0.50;;
61206;SDS011;47070;49.212;8.084;2022-08-06T21:52:01;0.93;;;0.40;;
61206;SDS011;47070;49.212;8.084;2022-08-06T21:56:02;0.95;;;0.40;;
61206;SDS011;47070;49.212;8.084;2022-08-06T22:00:04;0.38;;;0.38;;
61206;SDS011;47070;49.212;8.084;2022-08-06T22:04:10;1.75;;;0.50;;
61206;SDS011;47070;49.212;8.084;2022-08-06T22:08:10;0.35;;;0.35;;
61206;SDS011;47070;49.212;8.084;2022-08-06T22:12:11;0.40;;;0.40;;
61206;SDS011;47070;49.212;8.084;2022-08-06T22:16:13;0.45;;;0.43;;
61206;SDS011;47070;49.212;8.084;2022-08-06T22:20:14;0.75;;;0.47;;
61206;SDS011;47070;49.212;8.084;2022-08-06T22:24:15;0.85;;;0.50;;
61206;SDS011;47070;49.212;8.084;2022-08-06T22:28:15;2.20;;;0.80;;
61206;SDS011;47070;49.212;8.084;2022-08-06T22:32:16;1.13;;;0.55;;
61206;SDS011;47070;49.212;8.084;2022-08-06T22:36:17;0.52;;;0.50;;
61206;SDS011;47070;49.212;8.084;2022-08-06T22:40:17;1.08;;;0.60;;
61206;SDS011;47070;49.212;8.084;2022-08-06T22:44:18;0.85;;;0.40;;
61206;SDS011;47070;49.212;8.084;2022-08-06T22:48:18;0.60;;;0.60;;
61206;SDS011;47070;49.212;8.084;2022-08-06T22:52:19;0.52;;;0.52;;
61206;SDS011;47070;49.212;8.084;2022-08-06T22:56:19;0.75;;;0.47;;
61206;SDS011;47070;49.212;8.084;2022-08-06T23:00:20;1.55;;;0.70;;
61206;SDS011;47070;49.212;8.084;2022-08-06T23:04:21;0.55;;;0.55;;
61206;SDS011;47070;49.212;8.084;2022-08-06T23:08:22;0.85;;;0.30;;
61206;SDS011;47070;49.212;8.084;2022-08-06T23:12:22;0.68;;;0.43;;
61206;SDS011;47070;49.212;8.084;2022-08-06T23:16:23;0.73;;;0.45;;
61206;SDS011;47070;49.212;8.084;2022-08-06T23:20:23;0.80;;;0.47;;
61206;SDS011;47070;49.212;8.084;2022-08-06T23:24:24;0.47;;;0.47;;
61206;SDS011;47070;49.212;8.084;2022-08-06T23:28:24;1.60;;;0.50;;
61206;SDS011;47070;49.212;8.084;2022-08-06T23:32:25;0.52;;;0.47;;
61206;SDS011;47070;49.212;8.084;2022-08-06T23:36:26;0.93;;;0.45;;
61206;SDS011;47070;49.212;8.084;2022-08-06T23:40:27;1.60;;;0.50;;
61206;SDS011;47070;49.212;8.084;2022-08-06T23:44:28;0.75;;;0.32;;
61206;SDS011;47070;49.212;8.084;2022-08-06T23:48:30;0.50;;;0.50;;
61206;SDS011;47070;49.212;8.084;2022-08-06T23:52:31;1.52;;;0.55;;
61206;SDS011;47070;49.212;8.084;2022-08-06T23:56:32;0.30;;;0.30;;
